sensor_id;sensor_type;location;lat;lon;timestamp;P1;durP1;ratioP1;P2;durP2;ratioP2
10201;SDS011;5143;42.584;23.164;2023-08-07T00:01:18;4.20;;;1.43;;
10201;SDS011;5143;42.584;23.164;2023-08-07T00:03:44;3.17;;;1.77;;
10201;SDS011;5143;42.584;23.164;2023-08-07T00:06:12;1.60;;;1.40;;
10201;SDS011;5143;42.584;23.164;2023-08-07T00:08:40;2.27;;;1.60;;
10201;SDS011;5143;42.584;23.164;2023-08-07T00:11:07;1.60;;;1.50;;
10201;SDS011;5143;42.584;23.164;2023-08-07T00:13:34;4.67;;;1.70;;
10201;SDS011;5143;42.584;23.164;2023-08-07T00:16:02;1.50;;;1.37;;
10201;SDS011;5143;42.584;23.164;2023-08-07T00:18:29;7.73;;;1.70;;
10201;SDS011;5143;42.584;23.164;2023-08-07T00:20:56;1.80;;;1.43;;
10201;SDS011;5143;42.584;23.164;2023-08-07T00:23:23;1.80;;;1.70;;
10201;SDS011;5143;42.584;23.164;2023-08-07T00:25:51;2.43;;;1.50;;
10201;SDS011;5143;42.584;23.164;2023-08-07T00:28:18;1.80;;;1.40;;
10201;SDS011;5143;42.584;23.164;2023-08-07T00:30:44;2.60;;;1.37;;
10201;SDS011;5143;42.584;23.164;2023-08-07T00:33:11;1.50;;;1.40;;
10201;SDS011;5143;42.584;23.164;2023-08-07T00:35:38;5.93;;;1.70;;
10201;SDS011;5143;42.584;23.164;2023-08-07T00:38:04;1.70;;;1.50;;
10201;SDS011;5143;42.584;23.164;2023-08-07T00:40:35;2.97;;;1.90;;
10201;SDS011;5143;42.584;23.164;2023-08-07T00:43:05;7.57;;;1.70;;
10201;SDS011;5143;42.584;23.164;2023-08-07T00:45:32;1.90;;;1.53;;
10201;SDS011;5143;42.584;23.164;2023-08-07T00:48:03;2.90;;;1.50;;
10201;SDS011;5143;42.584;23.164;2023-08-07T00:50:30;2.23;;;1.47;;
10201;SDS011;5143;42.584;23.164;2023-08-07T00:52:57;2.00;;;1.80;;
10201;SDS011;5143;42.584;23.164;2023-08-07T00:55:24;1.77;;;1.60;;
10201;SDS011;5143;42.584;23.164;2023-08-07T00:57:51;1.50;;;1.33;;
10201;SDS011;5143;42.584;23.164;2023-08-07T01:00:20;1.80;;;1.47;;
10201;SDS011;5143;42.584;23.164;2023-08-07T01:02:47;2.53;;;1.70;;
10201;SDS011;5143;42.584;23.164;2023-08-07T01:05:16;3.50;;;1.50;;
10201;SDS011;5143;42.584;23.164;2023-08-07T01:07:44;2.07;;;1.67;;
10201;SDS011;5143;42.584;23.164;2023-08-07T01:10:11;1.97;;;1.50;;
10201;SDS011;5143;42.584;23.164;2023-08-07T01:12:40;1.63;;;1.53;;
10201;SDS011;5143;42.584;23.164;2023-08-07T01:15:14;4.23;;;2.10;;
10201;SDS011;5143;42.584;23.164;2023-08-07T01:17:47;3.33;;;1.70;;
10201;SDS011;5143;42.584;23.164;2023-08-07T01:20:16;2.57;;;2.10;;
10201;SDS011;5143;42.584;23.164;2023-08-07T01:22:45;4.80;;;1.80;;
10201;SDS011;5143;42.584;23.164;2023-08-07T01:25:12;4.00;;;1.77;;
10201;SDS011;5143;42.584;23.164;2023-08-07T01:27:41;2.40;;;1.83;;
10201;SDS011;5143;42.584;23.164;2023-08-07T01:30:14;1.90;;;1.70;;
10201;SDS011;5143;42.584;23.164;2023-08-07T01:32:54;2.20;;;1.80;;
10201;SDS011;5143;42.584;23.164;2023-08-07T01:35:27;1.70;;;1.50;;
10201;SDS011;5143;42.584;23.164;2023-08-07T01:38:00;4.73;;;1.83;;
10201;SDS011;5143;42.584;23.164;2023-08-07T01:40:27;2.53;;;1.70;;
10201;SDS011;5143;42.584;23.164;2023-08-07T01:42:55;4.20;;;1.80;;
10201;SDS011;5143;42.584;23.164;2023-08-07T01:45:22;5.53;;;1.67;;
10201;SDS011;5143;42.584;23.164;2023-08-07T01:47:50;2.80;;;1.70;;
10201;SDS011;5143;42.584;23.164;2023-08-07T01:50:17;1.80;;;1.60;;
10201;SDS011;5143;42.584;23.164;2023-08-07T01:52:44;1.70;;;1.47;;
10201;SDS011;5143;42.584;23.164;2023-08-07T01:55:13;2.17;;;1.40;;
10201;SDS011;5143;42.584;23.164;2023-08-07T01:57:39;3.73;;;1.70;;
10201;SDS011;5143;42.584;23.164;2023-08-07T02:00:07;1.90;;;1.70;;
10201;SDS011;5143;42.584;23.164;2023-08-07T02:02:34;2.43;;;1.70;;
10201;SDS011;5143;42.584;23.164;2023-08-07T02:05:01;2.50;;;1.83;;
10201;SDS011;5143;42.584;23.164;2023-08-07T02:07:28;5.20;;;1.90;;
10201;SDS011;5143;42.584;23.164;2023-08-07T02:09:55;3.27;;;1.63;;
10201;SDS011;5143;42.584;23.164;2023-08-07T02:12:23;3.77;;;1.77;;
10201;SDS011;5143;42.584;23.164;2023-08-07T02:14:51;2.37;;;1.73;;
10201;SDS011;5143;42.584;23.164;2023-08-07T02:17:21;3.70;;;1.53;;
10201;SDS011;5143;42.584;23.164;2023-08-07T02:19:48;1.97;;;1.60;;
10201;SDS011;5143;42.584;23.164;2023-08-07T02:22:15;8.63;;;1.60;;
10201;SDS011;5143;42.584;23.164;2023-08-07T02:24:41;7.70;;;1.77;;
10201;SDS011;5143;42.584;23.164;2023-08-07T02:27:08;1.77;;;1.40;;
10201;SDS011;5143;42.584;23.164;2023-08-07T02:29:36;2.33;;;1.67;;
10201;SDS011;5143;42.584;23.164;2023-08-07T02:32:03;2.70;;;1.80;;
10201;SDS011;5143;42.584;23.164;2023-08-07T02:34:31;3.00;;;1.73;;
10201;SDS011;5143;42.584;23.164;2023-08-07T02:36:57;3.70;;;1.90;;
10201;SDS011;5143;42.584;23.164;2023-08-07T02:39:24;3.63;;;1.83;;
10201;SDS011;5143;42.584;23.164;2023-08-07T02:41:51;1.80;;;1.63;;
10201;SDS011;5143;42.584;23.164;2023-08-07T02:44:18;3.40;;;1.57;;
10201;SDS011;5143;42.584;23.164;2023-08-07T02:46:47;5.53;;;1.90;;
10201;SDS011;5143;42.584;23.164;2023-08-07T02:49:14;2.77;;;2.00;;
10201;SDS011;5143;42.584;23.164;2023-08-07T02:51:40;2.37;;;1.80;;
10201;SDS011;5143;42.584;23.164;2023-08-07T02:54:07;2.23;;;1.83;;
10201;SDS011;5143;42.584;23.164;2023-08-07T02:56:34;6.50;;;2.00;;
10201;SDS011;5143;42.584;23.164;2023-08-07T02:59:00;3.37;;;1.57;;
10201;SDS011;5143;42.584;23.164;2023-08-07T03:01:27;4.77;;;2.03;;
10201;SDS011;5143;42.584;23.164;2023-08-07T03:03:56;2.40;;;2.20;;
10201;SDS011;5143;42.584;23.164;2023-08-07T03:06:22;7.50;;;2.30;;
10201;SDS011;5143;42.584;23.164;2023-08-07T03:08:49;4.77;;;2.00;;
10201;SDS011;5143;42.584;23.164;2023-08-07T03:11:16;3.30;;;1.77;;
10201;SDS011;5143;42.584;23.164;2023-08-07T03:13:43;4.83;;;2.10;;
10201;SDS011;5143;42.584;23.164;2023-08-07T03:16:10;2.20;;;2.00;;
10201;SDS011;5143;42.584;23.164;2023-08-07T03:18:37;3.03;;;2.13;;
10201;SDS011;5143;42.584;23.164;2023-08-07T03:21:05;2.13;;;1.90;;
10201;SDS011;5143;42.584;23.164;2023-08-07T03:23:32;3.53;;;2.43;;
10201;SDS011;5143;42.584;23.164;2023-08-07T03:26:02;2.60;;;2.07;;
10201;SDS011;5143;42.584;23.164;2023-08-07T03:28:29;3.50;;;1.90;;
10201;SDS011;5143;42.584;23.164;2023-08-07T03:30:56;8.07;;;2.10;;
10201;SDS011;5143;42.584;23.164;2023-08-07T03:33:23;5.20;;;2.23;;
10201;SDS011;5143;42.584;23.164;2023-08-07T03:35:49;2.40;;;2.17;;
10201;SDS011;5143;42.584;23.164;2023-08-07T03:38:18;4.00;;;2.17;;
10201;SDS011;5143;42.584;23.164;2023-08-07T03:40:45;2.90;;;2.23;;
10201;SDS011;5143;42.584;23.164;2023-08-07T03:43:12;3.17;;;2.40;;
10201;SDS011;5143;42.584;23.164;2023-08-07T03:45:39;8.47;;;2.80;;
10201;SDS011;5143;42.584;23.164;2023-08-07T03:48:06;6.60;;;2.70;;
10201;SDS011;5143;42.584;23.164;2023-08-07T03:50:32;2.50;;;2.30;;
10201;SDS011;5143;42.584;23.164;2023-08-07T03:53:02;5.23;;;2.67;;
10201;SDS011;5143;42.584;23.164;2023-08-07T03:55:30;5.47;;;2.47;;
10201;SDS011;5143;42.584;23.164;2023-08-07T03:57:57;2.57;;;2.37;;
10201;SDS011;5143;42.584;23.164;2023-08-07T04:00:24;5.40;;;2.57;;
10201;SDS011;5143;42.584;23.164;2023-08-07T04:02:51;8.13;;;2.70;;
10201;SDS011;5143;42.584;23.164;2023-08-07T04:05:18;5.53;;;2.67;;
10201;SDS011;5143;42.584;23.164;2023-08-07T04:07:44;2.57;;;2.30;;
10201;SDS011;5143;42.584;23.164;2023-08-07T04:10:11;13.67;;;2.77;;
10201;SDS011;5143;42.584;23.164;2023-08-07T04:12:39;5.60;;;2.60;;
10201;SDS011;5143;42.584;23.164;2023-08-07T04:15:07;6.10;;;2.53;;
10201;SDS011;5143;42.584;23.164;2023-08-07T04:17:35;3.97;;;2.60;;
10201;SDS011;5143;42.584;23.164;2023-08-07T04:20:02;3.13;;;2.40;;
10201;SDS011;5143;42.584;23.164;2023-08-07T04:22:30;5.13;;;3.50;;
10201;SDS011;5143;42.584;23.164;2023-08-07T04:24:57;4.57;;;2.50;;
10201;SDS011;5143;42.584;23.164;2023-08-07T04:27:25;7.10;;;2.67;;
10201;SDS011;5143;42.584;23.164;2023-08-07T04:29:53;5.37;;;2.70;;
10201;SDS011;5143;42.584;23.164;2023-08-07T04:32:20;4.43;;;2.93;;
10201;SDS011;5143;42.584;23.164;2023-08-07T04:34:47;6.20;;;2.87;;
10201;SDS011;5143;42.584;23.164;2023-08-07T04:37:14;7.07;;;2.63;;
10201;SDS011;5143;42.584;23.164;2023-08-07T04:39:40;7.40;;;3.13;;
10201;SDS011;5143;42.584;23.164;2023-08-07T04:42:07;4.70;;;2.50;;
10201;SDS011;5143;42.584;23.164;2023-08-07T04:44:34;3.90;;;2.53;;
10201;SDS011;5143;42.584;23.164;2023-08-07T04:47:02;11.37;;;3.53;;
10201;SDS011;5143;42.584;23.164;2023-08-07T04:49:29;6.93;;;2.10;;
10201;SDS011;5143;42.584;23.164;2023-08-07T04:51:55;6.00;;;1.60;;
10201;SDS011;5143;42.584;23.164;2023-08-07T04:54:22;6.80;;;2.30;;
10201;SDS011;5143;42.584;23.164;2023-08-07T04:56:49;4.73;;;1.60;;
10201;SDS011;5143;42.584;23.164;2023-08-07T04:59:16;3.30;;;1.40;;
10201;SDS011;5143;42.584;23.164;2023-08-07T05:01:42;3.10;;;1.47;;
10201;SDS011;5143;42.584;23.164;2023-08-07T05:04:10;2.55;;;1.25;;
10201;SDS011;5143;42.584;23.164;2023-08-07T05:06:37;2.85;;;1.00;;
10201;SDS011;5143;42.584;23.164;2023-08-07T05:09:04;2.05;;;0.90;;
10201;SDS011;5143;42.584;23.164;2023-08-07T05:11:31;4.38;;;1.25;;
10201;SDS011;5143;42.584;23.164;2023-08-07T05:13:58;3.08;;;1.13;;
10201;SDS011;5143;42.584;23.164;2023-08-07T05:16:25;1.98;;;1.10;;
10201;SDS011;5143;42.584;23.164;2023-08-07T05:18:52;0.90;;;0.73;;
10201;SDS011;5143;42.584;23.164;2023-08-07T05:21:20;4.35;;;1.42;;
10201;SDS011;5143;42.584;23.164;2023-08-07T05:23:47;2.75;;;1.17;;
10201;SDS011;5143;42.584;23.164;2023-08-07T05:26:18;3.92;;;1.08;;
10201;SDS011;5143;42.584;23.164;2023-08-07T05:28:45;1.52;;;1.00;;
10201;SDS011;5143;42.584;23.164;2023-08-07T05:31:11;1.23;;;0.80;;
10201;SDS011;5143;42.584;23.164;2023-08-07T05:33:38;3.83;;;1.00;;
10201;SDS011;5143;42.584;23.164;2023-08-07T05:36:05;2.50;;;0.82;;
10201;SDS011;5143;42.584;23.164;2023-08-07T05:38:34;9.43;;;1.38;;
10201;SDS011;5143;42.584;23.164;2023-08-07T05:41:01;1.35;;;0.90;;
10201;SDS011;5143;42.584;23.164;2023-08-07T05:43:27;1.25;;;0.93;;
10201;SDS011;5143;42.584;23.164;2023-08-07T05:45:54;3.25;;;0.80;;
10201;SDS011;5143;42.584;23.164;2023-08-07T05:48:21;2.08;;;0.80;;
10201;SDS011;5143;42.584;23.164;2023-08-07T05:50:48;1.77;;;0.88;;
10201;SDS011;5143;42.584;23.164;2023-08-07T05:53:14;0.90;;;0.70;;
10201;SDS011;5143;42.584;23.164;2023-08-07T05:55:42;1.80;;;0.70;;
10201;SDS011;5143;42.584;23.164;2023-08-07T05:58:09;1.35;;;0.50;;
10201;SDS011;5143;42.584;23.164;2023-08-07T06:00:36;2.50;;;1.00;;
10201;SDS011;5143;42.584;23.164;2023-08-07T06:03:02;2.42;;;0.50;;
10201;SDS011;5143;42.584;23.164;2023-08-07T06:05:29;1.10;;;0.70;;
10201;SDS011;5143;42.584;23.164;2023-08-07T06:07:56;1.30;;;0.70;;
10201;SDS011;5143;42.584;23.164;2023-08-07T06:10:23;1.92;;;0.60;;
10201;SDS011;5143;42.584;23.164;2023-08-07T06:12:51;1.23;;;0.63;;
10201;SDS011;5143;42.584;23.164;2023-08-07T06:15:18;0.80;;;0.60;;
10201;SDS011;5143;42.584;23.164;2023-08-07T06:17:45;1.10;;;0.57;;
10201;SDS011;5143;42.584;23.164;2023-08-07T06:20:12;1.02;;;0.40;;
10201;SDS011;5143;42.584;23.164;2023-08-07T06:22:39;0.80;;;0.50;;
10201;SDS011;5143;42.584;23.164;2023-08-07T06:25:06;0.80;;;0.50;;
10201;SDS011;5143;42.584;23.164;2023-08-07T06:27:34;1.58;;;0.57;;
10201;SDS011;5143;42.584;23.164;2023-08-07T06:30:03;2.88;;;0.57;;
10201;SDS011;5143;42.584;23.164;2023-08-07T06:32:30;0.93;;;0.57;;
10201;SDS011;5143;42.584;23.164;2023-08-07T06:34:57;0.80;;;0.43;;
10201;SDS011;5143;42.584;23.164;2023-08-07T06:37:24;2.85;;;0.60;;
10201;SDS011;5143;42.584;23.164;2023-08-07T06:39:51;1.27;;;0.43;;
10201;SDS011;5143;42.584;23.164;2023-08-07T06:42:18;1.20;;;0.55;;
10201;SDS011;5143;42.584;23.164;2023-08-07T06:44:45;2.80;;;0.50;;
10201;SDS011;5143;42.584;23.164;2023-08-07T06:47:13;0.85;;;0.50;;
10201;SDS011;5143;42.584;23.164;2023-08-07T06:49:39;0.90;;;0.60;;
10201;SDS011;5143;42.584;23.164;2023-08-07T06:52:06;0.88;;;0.50;;
10201;SDS011;5143;42.584;23.164;2023-08-07T06:54:33;1.55;;;0.77;;
10201;SDS011;5143;42.584;23.164;2023-08-07T06:57:01;0.82;;;0.50;;
10201;SDS011;5143;42.584;23.164;2023-08-07T06:59:28;0.98;;;0.60;;
10201;SDS011;5143;42.584;23.164;2023-08-07T07:01:54;0.70;;;0.30;;
10201;SDS011;5143;42.584;23.164;2023-08-07T07:04:22;0.85;;;0.40;;
10201;SDS011;5143;42.584;23.164;2023-08-07T07:06:49;1.05;;;0.50;;
10201;SDS011;5143;42.584;23.164;2023-08-07T07:09:16;1.00;;;0.50;;
10201;SDS011;5143;42.584;23.164;2023-08-07T07:11:43;1.23;;;0.63;;
10201;SDS011;5143;42.584;23.164;2023-08-07T07:14:10;3.90;;;0.70;;
10201;SDS011;5143;42.584;23.164;2023-08-07T07:16:37;2.05;;;0.40;;
10201;SDS011;5143;42.584;23.164;2023-08-07T07:19:04;0.90;;;0.40;;
10201;SDS011;5143;42.584;23.164;2023-08-07T07:21:33;1.15;;;0.35;;
10201;SDS011;5143;42.584;23.164;2023-08-07T07:24:01;0.82;;;0.50;;
10201;SDS011;5143;42.584;23.164;2023-08-07T07:26:27;3.05;;;0.32;;
10201;SDS011;5143;42.584;23.164;2023-08-07T07:28:54;1.60;;;0.63;;
10201;SDS011;5143;42.584;23.164;2023-08-07T07:31:21;3.80;;;0.70;;
10201;SDS011;5143;42.584;23.164;2023-08-07T07:33:48;6.75;;;0.88;;
10201;SDS011;5143;42.584;23.164;2023-08-07T07:36:15;2.15;;;0.70;;
10201;SDS011;5143;42.584;23.164;2023-08-07T07:38:44;4.40;;;0.60;;
10201;SDS011;5143;42.584;23.164;2023-08-07T07:41:12;1.35;;;0.45;;
10201;SDS011;5143;42.584;23.164;2023-08-07T07:43:39;0.70;;;0.40;;
10201;SDS011;5143;42.584;23.164;2023-08-07T07:46:06;6.22;;;0.80;;
10201;SDS011;5143;42.584;23.164;2023-08-07T07:48:33;1.92;;;0.60;;
10201;SDS011;5143;42.584;23.164;2023-08-07T07:51:00;0.85;;;0.50;;
10201;SDS011;5143;42.584;23.164;2023-08-07T07:53:27;3.55;;;0.82;;
10201;SDS011;5143;42.584;23.164;2023-08-07T07:55:55;4.63;;;0.93;;
10201;SDS011;5143;42.584;23.164;2023-08-07T07:58:22;2.70;;;0.70;;
10201;SDS011;5143;42.584;23.164;2023-08-07T08:00:49;3.95;;;0.88;;
10201;SDS011;5143;42.584;23.164;2023-08-07T08:03:18;1.33;;;0.60;;
10201;SDS011;5143;42.584;23.164;2023-08-07T08:05:46;3.53;;;0.80;;
10201;SDS011;5143;42.584;23.164;2023-08-07T08:08:15;1.15;;;0.38;;
10201;SDS011;5143;42.584;23.164;2023-08-07T08:10:42;2.45;;;0.57;;
10201;SDS011;5143;42.584;23.164;2023-08-07T08:13:10;1.88;;;0.60;;
10201;SDS011;5143;42.584;23.164;2023-08-07T08:15:37;1.02;;;0.63;;
10201;SDS011;5143;42.584;23.164;2023-08-07T08:18:04;1.40;;;0.80;;
10201;SDS011;5143;42.584;23.164;2023-08-07T08:20:31;1.15;;;0.70;;
10201;SDS011;5143;42.584;23.164;2023-08-07T08:22:58;1.63;;;0.77;;
10201;SDS011;5143;42.584;23.164;2023-08-07T08:25:25;5.43;;;0.80;;
10201;SDS011;5143;42.584;23.164;2023-08-07T08:27:52;1.20;;;0.80;;
10201;SDS011;5143;42.584;23.164;2023-08-07T08:30:20;1.42;;;0.80;;
10201;SDS011;5143;42.584;23.164;2023-08-07T08:32:47;4.13;;;0.82;;
10201;SDS011;5143;42.584;23.164;2023-08-07T08:35:14;2.67;;;0.80;;
10201;SDS011;5143;42.584;23.164;2023-08-07T08:37:41;1.15;;;0.70;;
10201;SDS011;5143;42.584;23.164;2023-08-07T08:40:09;1.25;;;0.73;;
10201;SDS011;5143;42.584;23.164;2023-08-07T08:42:41;0.90;;;0.80;;
10201;SDS011;5143;42.584;23.164;2023-08-07T08:45:09;6.53;;;1.00;;
10201;SDS011;5143;42.584;23.164;2023-08-07T08:47:40;2.57;;;0.97;;
10201;SDS011;5143;42.584;23.164;2023-08-07T08:50:09;3.43;;;0.83;;
10201;SDS011;5143;42.584;23.164;2023-08-07T08:52:38;1.23;;;0.83;;
10201;SDS011;5143;42.584;23.164;2023-08-07T08:55:07;1.43;;;1.00;;
10201;SDS011;5143;42.584;23.164;2023-08-07T08:57:35;1.20;;;0.90;;
10201;SDS011;5143;42.584;23.164;2023-08-07T09:00:04;1.30;;;1.00;;
10201;SDS011;5143;42.584;23.164;2023-08-07T09:02:45;1.47;;;1.00;;
10201;SDS011;5143;42.584;23.164;2023-08-07T09:05:14;1.10;;;0.80;;
10201;SDS011;5143;42.584;23.164;2023-08-07T09:07:41;1.40;;;0.83;;
10201;SDS011;5143;42.584;23.164;2023-08-07T09:10:09;2.17;;;0.93;;
10201;SDS011;5143;42.584;23.164;2023-08-07T09:12:38;2.87;;;1.03;;
10201;SDS011;5143;42.584;23.164;2023-08-07T09:15:07;0.83;;;0.80;;
10201;SDS011;5143;42.584;23.164;2023-08-07T09:17:39;1.37;;;0.90;;
10201;SDS011;5143;42.584;23.164;2023-08-07T09:20:09;0.90;;;0.80;;
10201;SDS011;5143;42.584;23.164;2023-08-07T09:22:38;2.70;;;0.80;;
10201;SDS011;5143;42.584;23.164;2023-08-07T09:25:06;1.87;;;1.33;;
10201;SDS011;5143;42.584;23.164;2023-08-07T09:27:35;1.63;;;0.97;;
10201;SDS011;5143;42.584;23.164;2023-08-07T09:30:04;2.63;;;0.90;;
10201;SDS011;5143;42.584;23.164;2023-08-07T09:32:33;1.53;;;0.80;;
10201;SDS011;5143;42.584;23.164;2023-08-07T09:35:01;5.03;;;1.00;;
10201;SDS011;5143;42.584;23.164;2023-08-07T09:37:30;5.40;;;1.10;;
10201;SDS011;5143;42.584;23.164;2023-08-07T09:39:57;3.53;;;0.90;;
10201;SDS011;5143;42.584;23.164;2023-08-07T09:42:26;2.57;;;1.10;;
10201;SDS011;5143;42.584;23.164;2023-08-07T09:44:59;1.50;;;0.93;;
10201;SDS011;5143;42.584;23.164;2023-08-07T09:47:26;6.53;;;2.07;;
10201;SDS011;5143;42.584;23.164;2023-08-07T09:49:54;2.33;;;1.13;;
10201;SDS011;5143;42.584;23.164;2023-08-07T09:52:21;1.50;;;0.77;;
10201;SDS011;5143;42.584;23.164;2023-08-07T09:54:52;3.80;;;1.10;;
10201;SDS011;5143;42.584;23.164;2023-08-07T09:57:22;3.07;;;1.03;;
10201;SDS011;5143;42.584;23.164;2023-08-07T09:59:49;3.07;;;1.10;;
10201;SDS011;5143;42.584;23.164;2023-08-07T10:02:16;1.50;;;0.80;;
10201;SDS011;5143;42.584;23.164;2023-08-07T10:04:43;1.67;;;1.00;;
10201;SDS011;5143;42.584;23.164;2023-08-07T10:07:10;1.77;;;1.10;;
10201;SDS011;5143;42.584;23.164;2023-08-07T10:09:40;1.43;;;1.33;;
10201;SDS011;5143;42.584;23.164;2023-08-07T10:12:10;2.03;;;1.10;;
10201;SDS011;5143;42.584;23.164;2023-08-07T10:14:37;2.33;;;1.00;;
10201;SDS011;5143;42.584;23.164;2023-08-07T10:17:06;5.50;;;1.30;;
10201;SDS011;5143;42.584;23.164;2023-08-07T10:19:34;1.43;;;0.93;;
10201;SDS011;5143;42.584;23.164;2023-08-07T10:22:00;1.00;;;0.80;;
10201;SDS011;5143;42.584;23.164;2023-08-07T10:24:29;2.90;;;1.20;;
10201;SDS011;5143;42.584;23.164;2023-08-07T10:26:57;1.40;;;1.10;;
10201;SDS011;5143;42.584;23.164;2023-08-07T10:29:27;1.10;;;0.80;;
10201;SDS011;5143;42.584;23.164;2023-08-07T10:31:55;5.57;;;1.10;;
10201;SDS011;5143;42.584;23.164;2023-08-07T10:34:24;1.13;;;0.83;;
10201;SDS011;5143;42.584;23.164;2023-08-07T10:36:51;1.83;;;1.10;;
10201;SDS011;5143;42.584;23.164;2023-08-07T10:39:18;5.93;;;1.33;;
10201;SDS011;5143;42.584;23.164;2023-08-07T10:41:48;6.30;;;1.57;;
10201;SDS011;5143;42.584;23.164;2023-08-07T10:44:19;2.07;;;1.03;;
10201;SDS011;5143;42.584;23.164;2023-08-07T10:46:49;0.97;;;0.80;;
10201;SDS011;5143;42.584;23.164;2023-08-07T10:49:30;1.50;;;0.97;;
10201;SDS011;5143;42.584;23.164;2023-08-07T10:51:58;1.20;;;0.80;;
10201;SDS011;5143;42.584;23.164;2023-08-07T10:54:29;1.10;;;0.90;;
10201;SDS011;5143;42.584;23.164;2023-08-07T10:56:55;1.30;;;1.00;;
10201;SDS011;5143;42.584;23.164;2023-08-07T10:59:22;1.73;;;0.90;;
10201;SDS011;5143;42.584;23.164;2023-08-07T11:01:54;1.63;;;1.00;;
10201;SDS011;5143;42.584;23.164;2023-08-07T11:04:21;1.40;;;0.90;;
10201;SDS011;5143;42.584;23.164;2023-08-07T11:06:51;1.47;;;0.90;;
10201;SDS011;5143;42.584;23.164;2023-08-07T11:09:18;1.33;;;1.10;;
10201;SDS011;5143;42.584;23.164;2023-08-07T11:11:46;1.00;;;0.60;;
10201;SDS011;5143;42.584;23.164;2023-08-07T11:14:14;1.40;;;1.00;;
10201;SDS011;5143;42.584;23.164;2023-08-07T11:16:42;1.10;;;0.80;;
10201;SDS011;5143;42.584;23.164;2023-08-07T11:19:11;1.40;;;0.90;;
10201;SDS011;5143;42.584;23.164;2023-08-07T11:21:39;3.50;;;1.20;;
10201;SDS011;5143;42.584;23.164;2023-08-07T11:24:07;1.70;;;1.00;;
10201;SDS011;5143;42.584;23.164;2023-08-07T11:26:34;1.17;;;0.90;;
10201;SDS011;5143;42.584;23.164;2023-08-07T11:29:01;2.00;;;0.90;;
10201;SDS011;5143;42.584;23.164;2023-08-07T11:31:27;3.07;;;0.90;;
10201;SDS011;5143;42.584;23.164;2023-08-07T11:33:55;1.33;;;0.90;;
10201;SDS011;5143;42.584;23.164;2023-08-07T11:36:24;1.57;;;0.90;;
10201;SDS011;5143;42.584;23.164;2023-08-07T11:38:51;1.00;;;0.90;;
10201;SDS011;5143;42.584;23.164;2023-08-07T11:41:18;5.67;;;1.07;;
10201;SDS011;5143;42.584;23.164;2023-08-07T11:43:45;0.90;;;0.70;;
10201;SDS011;5143;42.584;23.164;2023-08-07T11:46:12;2.27;;;0.90;;
10201;SDS011;5143;42.584;23.164;2023-08-07T11:48:42;1.90;;;1.00;;
10201;SDS011;5143;42.584;23.164;2023-08-07T11:51:10;1.73;;;0.80;;
10201;SDS011;5143;42.584;23.164;2023-08-07T11:53:39;2.27;;;1.27;;
10201;SDS011;5143;42.584;23.164;2023-08-07T11:56:07;1.17;;;0.87;;
10201;SDS011;5143;42.584;23.164;2023-08-07T11:58:36;2.63;;;0.90;;
10201;SDS011;5143;42.584;23.164;2023-08-07T12:01:04;1.63;;;0.73;;
10201;SDS011;5143;42.584;23.164;2023-08-07T12:03:32;0.90;;;0.80;;
10201;SDS011;5143;42.584;23.164;2023-08-07T12:06:03;1.20;;;0.80;;
10201;SDS011;5143;42.584;23.164;2023-08-07T12:08:31;1.83;;;0.90;;
10201;SDS011;5143;42.584;23.164;2023-08-07T12:11:02;1.00;;;0.77;;
10201;SDS011;5143;42.584;23.164;2023-08-07T12:13:30;2.50;;;0.98;;
10201;SDS011;5143;42.584;23.164;2023-08-07T12:16:00;1.25;;;0.90;;
10201;SDS011;5143;42.584;23.164;2023-08-07T12:18:27;2.78;;;1.10;;
10201;SDS011;5143;42.584;23.164;2023-08-07T12:20:58;5.50;;;0.88;;
10201;SDS011;5143;42.584;23.164;2023-08-07T12:23:25;1.30;;;0.85;;
10201;SDS011;5143;42.584;23.164;2023-08-07T12:25:52;1.10;;;0.90;;
10201;SDS011;5143;42.584;23.164;2023-08-07T12:28:21;6.18;;;1.40;;
10201;SDS011;5143;42.584;23.164;2023-08-07T12:30:47;1.75;;;0.98;;
10201;SDS011;5143;42.584;23.164;2023-08-07T12:33:14;1.35;;;1.05;;
10201;SDS011;5143;42.584;23.164;2023-08-07T12:35:41;2.75;;;1.10;;
10201;SDS011;5143;42.584;23.164;2023-08-07T12:38:08;3.65;;;1.20;;
10201;SDS011;5143;42.584;23.164;2023-08-07T12:40:36;5.80;;;1.00;;
10201;SDS011;5143;42.584;23.164;2023-08-07T12:43:04;4.55;;;1.33;;
10201;SDS011;5143;42.584;23.164;2023-08-07T12:45:32;3.90;;;1.00;;
10201;SDS011;5143;42.584;23.164;2023-08-07T12:47:59;3.17;;;1.00;;
10201;SDS011;5143;42.584;23.164;2023-08-07T12:50:27;2.97;;;1.20;;
10201;SDS011;5143;42.584;23.164;2023-08-07T12:52:54;0.98;;;0.68;;
10201;SDS011;5143;42.584;23.164;2023-08-07T12:55:21;2.05;;;1.00;;
10201;SDS011;5143;42.584;23.164;2023-08-07T12:57:48;2.28;;;1.20;;
10201;SDS011;5143;42.584;23.164;2023-08-07T13:00:15;3.22;;;1.00;;
10201;SDS011;5143;42.584;23.164;2023-08-07T13:02:45;1.23;;;0.83;;
10201;SDS011;5143;42.584;23.164;2023-08-07T13:05:13;1.10;;;0.87;;
10201;SDS011;5143;42.584;23.164;2023-08-07T13:07:42;5.87;;;1.00;;
10201;SDS011;5143;42.584;23.164;2023-08-07T13:10:09;4.07;;;1.30;;
10201;SDS011;5143;42.584;23.164;2023-08-07T13:12:38;2.70;;;1.17;;
10201;SDS011;5143;42.584;23.164;2023-08-07T13:15:06;2.57;;;1.23;;
10201;SDS011;5143;42.584;23.164;2023-08-07T13:17:34;1.60;;;1.30;;
10201;SDS011;5143;42.584;23.164;2023-08-07T13:20:03;4.70;;;1.30;;
10201;SDS011;5143;42.584;23.164;2023-08-07T13:22:33;1.93;;;1.00;;
10201;SDS011;5143;42.584;23.164;2023-08-07T13:25:00;1.93;;;1.07;;
10201;SDS011;5143;42.584;23.164;2023-08-07T13:27:27;1.37;;;1.03;;
10201;SDS011;5143;42.584;23.164;2023-08-07T13:29:54;1.47;;;1.10;;
10201;SDS011;5143;42.584;23.164;2023-08-07T13:32:21;1.27;;;1.10;;
10201;SDS011;5143;42.584;23.164;2023-08-07T13:34:48;1.83;;;1.00;;
10201;SDS011;5143;42.584;23.164;2023-08-07T13:37:16;3.63;;;1.10;;
10201;SDS011;5143;42.584;23.164;2023-08-07T13:39:43;2.37;;;0.93;;
10201;SDS011;5143;42.584;23.164;2023-08-07T13:42:09;1.30;;;1.03;;
10201;SDS011;5143;42.584;23.164;2023-08-07T13:44:36;2.03;;;1.00;;
10201;SDS011;5143;42.584;23.164;2023-08-07T13:47:03;6.03;;;1.00;;
10201;SDS011;5143;42.584;23.164;2023-08-07T13:49:31;2.00;;;1.20;;
10201;SDS011;5143;42.584;23.164;2023-08-07T13:51:57;3.03;;;1.07;;
10201;SDS011;5143;42.584;23.164;2023-08-07T13:54:26;2.30;;;1.03;;
10201;SDS011;5143;42.584;23.164;2023-08-07T13:56:53;6.40;;;1.17;;
10201;SDS011;5143;42.584;23.164;2023-08-07T13:59:19;3.43;;;1.33;;
10201;SDS011;5143;42.584;23.164;2023-08-07T14:01:46;1.67;;;1.10;;
10201;SDS011;5143;42.584;23.164;2023-08-07T14:04:13;2.70;;;1.20;;
10201;SDS011;5143;42.584;23.164;2023-08-07T14:06:41;1.40;;;1.13;;
10201;SDS011;5143;42.584;23.164;2023-08-07T14:09:08;1.20;;;1.10;;
10201;SDS011;5143;42.584;23.164;2023-08-07T14:11:37;3.70;;;1.27;;
10201;SDS011;5143;42.584;23.164;2023-08-07T14:14:04;2.50;;;1.60;;
10201;SDS011;5143;42.584;23.164;2023-08-07T14:16:31;1.50;;;1.20;;
10201;SDS011;5143;42.584;23.164;2023-08-07T14:18:58;5.97;;;1.40;;
10201;SDS011;5143;42.584;23.164;2023-08-07T14:21:24;1.57;;;1.13;;
10201;SDS011;5143;42.584;23.164;2023-08-07T14:23:51;5.87;;;1.20;;
10201;SDS011;5143;42.584;23.164;2023-08-07T14:26:18;5.30;;;1.30;;
10201;SDS011;5143;42.584;23.164;2023-08-07T14:28:47;1.83;;;1.27;;
10201;SDS011;5143;42.584;23.164;2023-08-07T14:31:14;3.90;;;1.43;;
10201;SDS011;5143;42.584;23.164;2023-08-07T14:33:41;3.03;;;1.60;;
10201;SDS011;5143;42.584;23.164;2023-08-07T14:36:08;2.10;;;1.30;;
10201;SDS011;5143;42.584;23.164;2023-08-07T14:38:34;4.17;;;1.40;;
10201;SDS011;5143;42.584;23.164;2023-08-07T14:41:01;3.23;;;1.30;;
10201;SDS011;5143;42.584;23.164;2023-08-07T14:43:28;1.47;;;1.20;;
10201;SDS011;5143;42.584;23.164;2023-08-07T14:45:57;3.83;;;1.47;;
10201;SDS011;5143;42.584;23.164;2023-08-07T14:48:24;2.87;;;1.50;;
10201;SDS011;5143;42.584;23.164;2023-08-07T14:50:51;1.70;;;1.10;;